Kyoto, Japan

11:11 AM JST on July 26, 2016 (GMT +0900)
Osaka International | | Change Station

Elev 49 ft 34.78 °N, 135.44 °E | Updated 11 minutes ago

Rain Showers
Showers Rain
75 °F
Feels Like 75 °F
N
6
Wind Variable Wind from SW

Today
High -- | Low -- °F
--% Chance of Precip.
Yesterday
High -- | Low -- °F
Precip. -- in
Pressure 29.83 in
Visibility 6.2 miles
Clouds Few 400 ft
Scattered Clouds 600 ft
Mostly Cloudy 800 ft
Dew Point 75 °F
Humidity 100%
Rainfall 0.00 in
Snow Depth Not available.
5:01 AM 7:04 PM
Waning Gibbous, 60% visible
METAR RJOO 260200Z 22005KT 160V250 9999 SHRA FEW004 SCT006 BKN008 24/24 Q1010 RMK 1ST004 4ST006 5CU008 A2984
Pressure 29.83 in
Visibility 6.2 miles
Clouds Few 400 ft
Scattered Clouds 600 ft
Mostly Cloudy 800 ft
Dew Point 75 °F
Humidity 100%
Rainfall 0.00 in
Snow Depth Not available.
5:01 AM 7:04 PM
Waning Gibbous, 60% visible
METAR RJOO 260200Z 22005KT 160V250 9999 SHRA FEW004 SCT006 BKN008 24/24 Q1010 RMK 1ST004 4ST006 5CU008 A2984

10-Day Weather Forecast

No radar image for this location.
×

Almanac

Astronomy

Jul. 26, 2016 Rise Set
Actual Time
Civil Twilight
Nautical Twilight
Astronomical Twilight
Moon
Length of Visible Light
Length of Day
Tomorrow will be .
, % of the Moon is Illuminated

Today's Extremes

Country Highs Country Lows

Community

WunderPhotos

Upload Photos

1,927,503 photos uploaded!

WunderBlog® & News

Nearby

Air Quality

  Air Quality AQ Index Pollutant
Not available.

Snow Depth

Station Depth Elevation

Earthquake Activity

City Distance Mag. Time & Date
Minimum magnitude displayed is 2.5.

Coastal Water Temperatures

Place Temperature

Stations

Nearby Weather Stations

Station Location Temp. Windchill Dew Point Humidity Wind Precip. Elev Updated Type